メインページ
METAR-TAF:

METAR-TAF

空港 :

グラン・カナリア島, スペイン

グラン・カナリア空港

緯度: 27-56N, 経度: 015-23W, 海抜: 23m

現時点の気象観測

当レポートは21分前の11:30(UTC)に作成
の風 21kt、北/北西から北/北東の間で変化する
気温 25°C
湿度 44%
気圧 1017 hPa
視程10km以上
高度3500ftの雲はほとんどない

METAR: GCLP 241130Z 01021KT 330V030 9999 FEW035 25/12 Q1017 NOSIG

時間: 12:51 (11:51 UTC)

予報

当レポートは3時間51分前の08:00(UTC)に作成
予報は24日の 09時(UTC)から 25日の 09時(UTC)まで有効
の風 15kt
視程10km以上
高度3000ftの雲はほとんどない
高度3500ftの雲は散在している

TAF: GCLP 240800Z 2409/2509 36015KT 9999 FEW030 SCT035 TX25/2413Z TN19/2506Z

4,000以上の空港の気象観測と天気予報(METAR報とTAF報)

利用可能な観測所は地図上に黄色い丸と赤い丸で示す。

丸の上にカーソルを重ねると観測所名を参照できる。

次にクリックすると気象観測と天気予報を参照できる。

マップの切り替え:黒色「×」印の緑ボタンをクリックして拡大、「-」印の緑ボタンをクリックして縮小、緑色の三角印をクリックして隣りの地図に切り替え


METAR-TAF: